• Join FlightAware (Why Join?)
  • Login
  • US Flag 
09:40AM EDT


 

Airport Tracker/Info


-or-


 

Live Flight TrackerFlight Track Log ✈ C-GYYP ✈ 28-Jun-2013 ✈ CYQU - CYVK / YVE

Flight Track Log - Related Links

Times and Time Zones

All times are in EDT time to prevent confusion due to time zone crossing. See the C-GYYP flight status page for this flight to view local times or setup timezone preferences in your user account.

Time Position Orientation Groundspeed Altitude Reporting Facility
EDT Latitude Longitude Course Direction KTS MPH feet Rate Location/Type
02:14PM 55.1500 -118.9667 183° South 120 138 3,000  Level Edmonton Center
02:15PM 55.1167 -118.9667 180° South 130 150 3,900 840 Climbing Edmonton Center
02:16PM 55.0833 -118.9833 196° South 140 161 4,700 720 Climbing Edmonton Center
02:17PM 55.0333 -118.9833 180° South 140 161 5,400 600 Climbing Edmonton Center
02:18PM 55.0000 -118.9833 180° South 140 161 6,000 600 Climbing Edmonton Center
02:19PM 54.9500 -119.0000 191° South 140 161 6,700 600 Climbing Edmonton Center
02:20PM 54.8477 -118.9184 183° South  Level Estimated
02:20PM 54.9167 -119.0167 196° South 150 173 7,300  Level Edmonton Center
02:21PM 54.8667 -119.0000 169° South 150 173 7,700 540 Climbing Edmonton Center
02:22PM 54.8333 -119.0167 196° South 160 184 8,400 720 Climbing Edmonton Center
02:23PM 54.7833 -118.9833 159° South 150 173 9,200 600 Climbing Edmonton Center
02:24PM 54.7500 -119.0000 196° South 150 173 9,700 420 Climbing Edmonton Center
02:25PM 54.7000 -118.9833 169° South 150 173 10,100 300 Climbing Edmonton Center
02:26PM 54.6500 -118.9667 169° South 160 184 10,400 600 Climbing Edmonton Center
02:27PM 54.6167 -118.9667 180° South 150 173 11,400 780 Climbing Edmonton Center
02:28PM 54.5833 -118.9833 196° South 140 161 12,000 600 Climbing Edmonton Center
02:29PM 54.5333 -118.9667 169° South 140 161 12,600 600 Climbing Edmonton Center
02:30PM 54.5000 -118.9500 164° South 150 173 13,200 600 Climbing Edmonton Center
02:31PM 54.4667 -118.9667 196° South 150 173 13,900 600 Climbing Edmonton Center
02:32PM 54.4167 -118.9667 180° South 140 161 14,500 480 Climbing Edmonton Center
02:33PM 54.3833 -118.9667 180° South 150 173 14,900 120 Climbing Edmonton Center
02:34PM 54.3167 -118.9667 180° South 160 184 14,800 -60 Descending Edmonton Center
02:35PM 54.2833 -118.9833 196° South 160 184 14,800  Level Edmonton Center
02:36PM 54.2333 -118.9667 169° South 170 196 14,800  Level Edmonton Center
02:37PM 54.1833 -118.9833 191° South 170 196 14,800  Level Edmonton Center
02:38PM 54.1333 -119.0000 191° South 170 196 14,800  Level Edmonton Center
02:39PM 54.1000 -119.0167 196° South 170 196 14,800  Level Edmonton Center
02:40PM 54.0500 -119.0000 169° South 170 196 14,800  Level Edmonton Center
02:41PM 54.0000 -119.0000 180° South 170 196 14,800  Level Edmonton Center
02:42PM 53.9500 -119.0167 191° South 170 196 14,800  Level Edmonton Center
02:43PM 53.9000 -119.0333 191° South 170 196 14,800  Level Edmonton Center
02:44PM 53.8500 -119.0167 169° South 170 196 14,800  Level Edmonton Center
02:45PM 53.8000 -119.0167 180° South 170 196 14,800  Level Edmonton Center
02:46PM 53.7667 -119.0333 196° South 170 196 14,800  Level Edmonton Center
02:47PM 53.7167 -119.0500 191° South 170 196 14,800  Level Edmonton Center
02:48PM 53.6667 -119.0333 169° South 170 196 14,900  Climbing Edmonton Center
02:49PM 53.6167 -119.0500 191° South 170 196 14,800  Descending Edmonton Center
02:50PM 53.6000 -118.9833 113° Southeast 170 196 14,900  Climbing Vancouver Center
02:51PM 53.5500 -118.9833 180° South 170 196 14,900  Level Vancouver Center
02:52PM 53.5000 -119.0000 191° South 170 196 14,900 -60 Level Vancouver Center
02:53PM 53.4500 -119.0000 180° South 170 196 14,800  Descending Vancouver Center
02:54PM 53.4167 -119.0000 180° South 170 196 14,900  Climbing Vancouver Center
02:55PM 53.3667 -118.9833 169° South 170 196 14,900  Level Vancouver Center
02:56PM 53.3167 -118.9833 180° South 170 196 14,900  Level Vancouver Center
02:57PM 53.2667 -119.0000 191° South 170 196 14,900 -60 Level Vancouver Center
02:58PM 53.2333 -119.0000 180° South 170 196 14,800 -60 Descending Vancouver Center
02:59PM 53.1833 -119.0000 180° South 170 196 14,800  Level Vancouver Center
03:00PM 53.1333 -119.0167 191° South 170 196 14,800  Level Vancouver Center
03:01PM 53.0833 -119.0167 180° South 170 196 14,900  Climbing Vancouver Center
03:02PM 53.0333 -119.0167 180° South 170 196 14,900  Level Vancouver Center
03:04PM 52.9710 -119.0255 185° South  Level FlightAware Approximate
03:11PM 52.6397 -119.0723 185° South  Level FlightAware Approximate
03:11PM 52.6500 -119.0667 185° South 170 196 14,900  Level Vancouver Center
03:12PM 52.5923 -119.0789 185° South  Level FlightAware Approximate
03:12PM 52.6000 -119.0667 180° South 170 196 14,900  Level Vancouver Center
03:13PM 52.5450 -119.0855 185° South  Level FlightAware Approximate
03:13PM 52.5500 -119.0667 180° South 170 196 14,900  Level Vancouver Center
03:14PM 52.4977 -119.0921 185° South  Level FlightAware Approximate
03:14PM 52.5000 -119.0833 191° South 170 196 15,000  Level Vancouver Center
03:15PM 52.4503 -119.0987 185° South  Level FlightAware Approximate
03:15PM 52.4500 -119.0833 180° South 170 196 15,000  Level Vancouver Center
03:16PM 52.4030 -119.1052 185° South  Level FlightAware Approximate
03:16PM 52.4167 -119.0833 180° South 170 196 14,900  Level Vancouver Center
03:17PM 52.3667 -119.1000 192° South 170 196 14,900  Level Vancouver Center
03:18PM 52.3167 -119.1000 180° South 170 196 14,900  Level Vancouver Center
03:19PM 52.2667 -119.1000 180° South 170 196 14,900  Level Vancouver Center
03:20PM 52.2333 -119.1000 180° South 170 196 15,000  Climbing Vancouver Center
03:21PM 52.1833 -119.1167 192° South 170 196 15,000 -120 Level Vancouver Center
03:22PM 52.1333 -119.1167 180° South 170 196 14,800 -60 Descending Vancouver Center
03:23PM 52.0833 -119.1167 180° South 170 196 14,900  Climbing Vancouver Center
03:24PM 52.0333 -119.1333 192° South 170 196 14,800  Descending Vancouver Center
03:25PM 51.9833 -119.1333 180° South 170 196 14,900  Climbing Vancouver Center
03:26PM 51.9500 -119.1333 180° South 170 196 14,900 -60 Level Vancouver Center
03:27PM 51.9000 -119.1333 180° South 170 196 14,800 -60 Descending Vancouver Center
03:28PM 51.8500 -119.1667 202° Southwest 170 196 14,800  Level Vancouver Center
03:29PM 51.8000 -119.1500 168° South 170 196 14,800  Level Vancouver Center
03:30PM 51.7500 -119.1500 180° South 170 196 14,800  Level Vancouver Center
03:31PM 51.7167 -119.1667 197° South 160 184 14,800  Level Vancouver Center
03:32PM 51.6667 -119.1667 180° South 170 196 14,800  Level Vancouver Center
03:33PM 51.6167 -119.1667 180° South 170 196 14,800  Level Vancouver Center
03:34PM 51.5667 -119.1833 192° South 170 196 14,900  Climbing Vancouver Center
03:35PM 51.5333 -119.1833 180° South 170 196 14,800 -60 Descending Vancouver Center
03:36PM 51.4833 -119.1833 180° South 170 196 14,800  Level Vancouver Center
03:37PM 51.4333 -119.1833 180° South 170 196 14,800  Level Vancouver Center
03:38PM 51.3833 -119.2000 192° South 170 196 14,900  Climbing Vancouver Center
03:39PM 51.3333 -119.2000 180° South 170 196 14,900  Level Vancouver Center
03:40PM 51.3000 -119.2000 180° South 170 196 14,900  Level Vancouver Center
03:41PM 51.2500 -119.2000 180° South 170 196 14,900  Level Vancouver Center
03:42PM 51.2000 -119.2167 192° South 170 196 14,900 -180 Level Vancouver Center
03:43PM 51.1500 -119.2167 180° South 170 196 14,600 -600 Descending Vancouver Center
03:44PM 51.1000 -119.2167 180° South 190 219 13,800 -900 Descending Vancouver Center
03:45PM 51.0500 -119.2333 192° South 200 230 12,900 -900 Descending Vancouver Center
03:46PM 50.9833 -119.2333 180° South 200 230 12,100 -480 Descending Vancouver Center
03:47PM 50.9333 -119.2167 168° South 190 219 12,000 -120 Descending Vancouver Center
03:48PM 50.8833 -119.2167 180° South 180 207 11,900 -360 Descending Vancouver Center
03:49PM 50.8333 -119.2167 180° South 190 219 11,300 -720 Descending Vancouver Center
03:50PM 50.7833 -119.2000 168° South 200 230 10,500 -780 Descending Vancouver Center
03:51PM 50.7167 -119.2000 180° South 200 230 9,800 -780 Descending Vancouver Center
03:52PM 50.6667 -119.2167 192° South 200 230 9,000 -840 Descending Vancouver Center
03:53PM 50.6167 -119.2167 180° South 190 219 8,200 -840 Descending Vancouver Center